sensor_id;sensor_type;location;lat;lon;timestamp;P1;durP1;ratioP1;P2;durP2;ratioP2
15806;SDS011;8005;51.368;6.140;2023-02-01T00:00:22;22.55;;;9.32;;
15806;SDS011;8005;51.368;6.140;2023-02-01T00:01:55;25.30;;;9.60;;
15806;SDS011;8005;51.368;6.140;2023-02-01T00:03:29;24.85;;;10.43;;
15806;SDS011;8005;51.368;6.140;2023-02-01T00:05:11;22.35;;;9.82;;
15806;SDS011;8005;51.368;6.140;2023-02-01T00:06:46;22.85;;;9.77;;
15806;SDS011;8005;51.368;6.140;2023-02-01T00:08:19;22.45;;;9.23;;
15806;SDS011;8005;51.368;6.140;2023-02-01T00:09:52;30.50;;;10.13;;
15806;SDS011;8005;51.368;6.140;2023-02-01T00:11:24;27.38;;;9.93;;
15806;SDS011;8005;51.368;6.140;2023-02-01T00:12:57;19.52;;;8.50;;
15806;SDS011;8005;51.368;6.140;2023-02-01T00:14:33;27.20;;;9.50;;
15806;SDS011;8005;51.368;6.140;2023-02-01T00:17:46;20.95;;;8.68;;
15806;SDS011;8005;51.368;6.140;2023-02-01T00:19:18;24.35;;;8.23;;
15806;SDS011;8005;51.368;6.140;2023-02-01T00:20:50;30.38;;;7.53;;
15806;SDS011;8005;51.368;6.140;2023-02-01T00:22:22;22.00;;;7.53;;
15806;SDS011;8005;51.368;6.140;2023-02-01T00:23:55;24.20;;;7.22;;
15806;SDS011;8005;51.368;6.140;2023-02-01T00:25:29;23.98;;;7.88;;
15806;SDS011;8005;51.368;6.140;2023-02-01T00:27:01;15.23;;;6.18;;
15806;SDS011;8005;51.368;6.140;2023-02-01T00:28:33;20.33;;;6.55;;
15806;SDS011;8005;51.368;6.140;2023-02-01T00:30:06;28.58;;;7.78;;
15806;SDS011;8005;51.368;6.140;2023-02-01T00:31:39;24.05;;;7.05;;
15806;SDS011;8005;51.368;6.140;2023-02-01T00:33:11;20.77;;;6.95;;
15806;SDS011;8005;51.368;6.140;2023-02-01T00:34:43;19.30;;;5.75;;
15806;SDS011;8005;51.368;6.140;2023-02-01T00:36:16;20.52;;;7.03;;
15806;SDS011;8005;51.368;6.140;2023-02-01T00:37:48;16.63;;;6.47;;
15806;SDS011;8005;51.368;6.140;2023-02-01T00:39:22;19.42;;;6.65;;
15806;SDS011;8005;51.368;6.140;2023-02-01T00:41:01;20.10;;;6.35;;
15806;SDS011;8005;51.368;6.140;2023-02-01T00:42:44;19.65;;;6.78;;
15806;SDS011;8005;51.368;6.140;2023-02-01T00:44:16;20.05;;;5.82;;
15806;SDS011;8005;51.368;6.140;2023-02-01T00:45:49;19.35;;;5.75;;
15806;SDS011;8005;51.368;6.140;2023-02-01T00:47:22;24.13;;;6.85;;
15806;SDS011;8005;51.368;6.140;2023-02-01T00:48:54;21.27;;;6.13;;
15806;SDS011;8005;51.368;6.140;2023-02-01T00:50:26;18.38;;;6.10;;
15806;SDS011;8005;51.368;6.140;2023-02-01T00:52:01;19.20;;;5.78;;
15806;SDS011;8005;51.368;6.140;2023-02-01T00:53:33;22.08;;;5.60;;
15806;SDS011;8005;51.368;6.140;2023-02-01T00:55:11;20.33;;;5.35;;
15806;SDS011;8005;51.368;6.140;2023-02-01T00:56:43;20.60;;;5.72;;
15806;SDS011;8005;51.368;6.140;2023-02-01T00:58:16;18.73;;;5.80;;
15806;SDS011;8005;51.368;6.140;2023-02-01T00:59:48;15.20;;;4.72;;
15806;SDS011;8005;51.368;6.140;2023-02-01T01:01:24;21.75;;;5.63;;
15806;SDS011;8005;51.368;6.140;2023-02-01T01:02:59;12.10;;;4.78;;
15806;SDS011;8005;51.368;6.140;2023-02-01T01:04:34;22.67;;;5.47;;
15806;SDS011;8005;51.368;6.140;2023-02-01T01:06:26;17.30;;;4.38;;
15806;SDS011;8005;51.368;6.140;2023-02-01T01:08:04;21.42;;;4.90;;
15806;SDS011;8005;51.368;6.140;2023-02-01T01:09:42;20.67;;;4.68;;
15806;SDS011;8005;51.368;6.140;2023-02-01T01:11:16;15.90;;;4.22;;
15806;SDS011;8005;51.368;6.140;2023-02-01T01:12:51;21.42;;;4.55;;
15806;SDS011;8005;51.368;6.140;2023-02-01T01:14:23;20.60;;;5.75;;
15806;SDS011;8005;51.368;6.140;2023-02-01T01:15:56;18.13;;;5.95;;
15806;SDS011;8005;51.368;6.140;2023-02-01T01:17:28;19.77;;;3.90;;
15806;SDS011;8005;51.368;6.140;2023-02-01T01:19:00;16.55;;;3.80;;
15806;SDS011;8005;51.368;6.140;2023-02-01T01:20:36;12.73;;;3.83;;
15806;SDS011;8005;51.368;6.140;2023-02-01T01:22:10;14.55;;;3.80;;
15806;SDS011;8005;51.368;6.140;2023-02-01T01:23:42;16.38;;;4.30;;
15806;SDS011;8005;51.368;6.140;2023-02-01T01:25:24;19.83;;;4.00;;
15806;SDS011;8005;51.368;6.140;2023-02-01T01:26:56;17.00;;;4.75;;
15806;SDS011;8005;51.368;6.140;2023-02-01T01:28:29;32.83;;;4.28;;
15806;SDS011;8005;51.368;6.140;2023-02-01T01:30:02;14.85;;;3.63;;
15806;SDS011;8005;51.368;6.140;2023-02-01T01:31:34;12.38;;;3.10;;
15806;SDS011;8005;51.368;6.140;2023-02-01T01:33:14;15.10;;;3.25;;
15806;SDS011;8005;51.368;6.140;2023-02-01T01:34:46;15.07;;;3.17;;
15806;SDS011;8005;51.368;6.140;2023-02-01T01:36:19;14.15;;;3.00;;
15806;SDS011;8005;51.368;6.140;2023-02-01T01:37:51;15.85;;;3.65;;
15806;SDS011;8005;51.368;6.140;2023-02-01T01:39:23;17.00;;;3.25;;
15806;SDS011;8005;51.368;6.140;2023-02-01T01:40:55;13.30;;;3.20;;
15806;SDS011;8005;51.368;6.140;2023-02-01T01:42:28;19.55;;;3.83;;
15806;SDS011;8005;51.368;6.140;2023-02-01T01:44:01;16.35;;;3.25;;
15806;SDS011;8005;51.368;6.140;2023-02-01T01:45:35;19.13;;;3.75;;
15806;SDS011;8005;51.368;6.140;2023-02-01T01:47:07;17.15;;;3.10;;
15806;SDS011;8005;51.368;6.140;2023-02-01T01:50:13;14.18;;;2.80;;
15806;SDS011;8005;51.368;6.140;2023-02-01T01:53:26;16.05;;;4.13;;
15806;SDS011;8005;51.368;6.140;2023-02-01T01:55:00;14.07;;;3.95;;
15806;SDS011;8005;51.368;6.140;2023-02-01T01:56:35;15.43;;;3.47;;
15806;SDS011;8005;51.368;6.140;2023-02-01T01:58:12;18.02;;;4.30;;
15806;SDS011;8005;51.368;6.140;2023-02-01T01:59:48;21.70;;;3.60;;
15806;SDS011;8005;51.368;6.140;2023-02-01T02:01:25;14.18;;;2.72;;
15806;SDS011;8005;51.368;6.140;2023-02-01T02:03:01;16.13;;;3.88;;
15806;SDS011;8005;51.368;6.140;2023-02-01T02:04:39;22.38;;;3.92;;
15806;SDS011;8005;51.368;6.140;2023-02-01T02:06:14;15.40;;;3.07;;
15806;SDS011;8005;51.368;6.140;2023-02-01T02:07:52;16.77;;;3.15;;
15806;SDS011;8005;51.368;6.140;2023-02-01T02:09:25;17.90;;;3.63;;
15806;SDS011;8005;51.368;6.140;2023-02-01T02:10:57;23.40;;;3.65;;
15806;SDS011;8005;51.368;6.140;2023-02-01T02:12:32;20.95;;;3.67;;
15806;SDS011;8005;51.368;6.140;2023-02-01T02:14:05;18.00;;;4.00;;
15806;SDS011;8005;51.368;6.140;2023-02-01T02:15:41;14.07;;;3.78;;
15806;SDS011;8005;51.368;6.140;2023-02-01T02:17:29;25.73;;;4.93;;
15806;SDS011;8005;51.368;6.140;2023-02-01T02:30:10;16.42;;;4.03;;
15806;SDS011;8005;51.368;6.140;2023-02-01T02:32:12;22.23;;;4.22;;
15806;SDS011;8005;51.368;6.140;2023-02-01T02:37:38;22.95;;;4.63;;
15806;SDS011;8005;51.368;6.140;2023-02-01T02:41:45;16.67;;;4.30;;
15806;SDS011;8005;51.368;6.140;2023-02-01T02:43:48;18.42;;;5.95;;
15806;SDS011;8005;51.368;6.140;2023-02-01T02:49:33;24.77;;;5.57;;
15806;SDS011;8005;51.368;6.140;2023-02-01T02:51:07;18.42;;;4.50;;
15806;SDS011;8005;51.368;6.140;2023-02-01T02:53:19;16.92;;;4.85;;
15806;SDS011;8005;51.368;6.140;2023-02-01T02:55:13;17.98;;;4.28;;
15806;SDS011;8005;51.368;6.140;2023-02-01T02:58:37;17.00;;;4.40;;
15806;SDS011;8005;51.368;6.140;2023-02-01T03:00:32;18.27;;;4.30;;
15806;SDS011;8005;51.368;6.140;2023-02-01T03:02:25;16.73;;;4.55;;
15806;SDS011;8005;51.368;6.140;2023-02-01T03:04:17;28.88;;;5.78;;
15806;SDS011;8005;51.368;6.140;2023-02-01T03:05:52;16.75;;;4.63;;
15806;SDS011;8005;51.368;6.140;2023-02-01T03:09:21;19.65;;;4.68;;
15806;SDS011;8005;51.368;6.140;2023-02-01T03:11:00;21.35;;;5.60;;
15806;SDS011;8005;51.368;6.140;2023-02-01T03:12:40;20.40;;;5.95;;
15806;SDS011;8005;51.368;6.140;2023-02-01T03:14:27;24.15;;;4.45;;
15806;SDS011;8005;51.368;6.140;2023-02-01T03:16:03;16.20;;;4.55;;
15806;SDS011;8005;51.368;6.140;2023-02-01T03:17:41;23.10;;;5.53;;
15806;SDS011;8005;51.368;6.140;2023-02-01T03:19:22;22.45;;;6.00;;
15806;SDS011;8005;51.368;6.140;2023-02-01T03:20:57;22.98;;;6.07;;
15806;SDS011;8005;51.368;6.140;2023-02-01T03:22:32;33.08;;;6.70;;
15806;SDS011;8005;51.368;6.140;2023-02-01T03:24:08;22.20;;;4.53;;
15806;SDS011;8005;51.368;6.140;2023-02-01T03:25:43;22.08;;;5.10;;
15806;SDS011;8005;51.368;6.140;2023-02-01T03:28:55;17.45;;;4.35;;
15806;SDS011;8005;51.368;6.140;2023-02-01T03:30:30;19.67;;;5.35;;
15806;SDS011;8005;51.368;6.140;2023-02-01T03:32:05;15.30;;;4.65;;
15806;SDS011;8005;51.368;6.140;2023-02-01T03:33:37;21.08;;;4.90;;
15806;SDS011;8005;51.368;6.140;2023-02-01T03:35:09;19.58;;;5.65;;
15806;SDS011;8005;51.368;6.140;2023-02-01T03:37:04;17.17;;;4.35;;
15806;SDS011;8005;51.368;6.140;2023-02-01T03:40:38;17.10;;;3.97;;
15806;SDS011;8005;51.368;6.140;2023-02-01T03:42:27;20.02;;;4.80;;
15806;SDS011;8005;51.368;6.140;2023-02-01T03:46:05;19.63;;;5.15;;
15806;SDS011;8005;51.368;6.140;2023-02-01T03:47:43;23.30;;;6.10;;
15806;SDS011;8005;51.368;6.140;2023-02-01T03:49:34;22.83;;;5.20;;
15806;SDS011;8005;51.368;6.140;2023-02-01T03:51:16;21.05;;;4.30;;
15806;SDS011;8005;51.368;6.140;2023-02-01T03:52:54;24.20;;;4.63;;
15806;SDS011;8005;51.368;6.140;2023-02-01T03:54:30;18.42;;;4.65;;
15806;SDS011;8005;51.368;6.140;2023-02-01T03:56:04;28.23;;;5.18;;
15806;SDS011;8005;51.368;6.140;2023-02-01T03:59:44;14.20;;;4.18;;
15806;SDS011;8005;51.368;6.140;2023-02-01T04:01:17;22.88;;;3.95;;
15806;SDS011;8005;51.368;6.140;2023-02-01T04:02:49;25.67;;;6.45;;
15806;SDS011;8005;51.368;6.140;2023-02-01T04:04:22;21.05;;;3.95;;
15806;SDS011;8005;51.368;6.140;2023-02-01T04:05:59;20.95;;;4.20;;
15806;SDS011;8005;51.368;6.140;2023-02-01T04:07:33;26.27;;;4.55;;
15806;SDS011;8005;51.368;6.140;2023-02-01T04:09:05;22.63;;;5.72;;
15806;SDS011;8005;51.368;6.140;2023-02-01T04:10:37;19.73;;;5.53;;
15806;SDS011;8005;51.368;6.140;2023-02-01T04:12:53;16.20;;;3.80;;
15806;SDS011;8005;51.368;6.140;2023-02-01T04:14:40;20.83;;;3.97;;
15806;SDS011;8005;51.368;6.140;2023-02-01T04:16:12;22.88;;;4.60;;
15806;SDS011;8005;51.368;6.140;2023-02-01T04:17:45;21.20;;;4.97;;
15806;SDS011;8005;51.368;6.140;2023-02-01T04:19:26;21.42;;;5.00;;
15806;SDS011;8005;51.368;6.140;2023-02-01T04:21:01;20.25;;;4.18;;
15806;SDS011;8005;51.368;6.140;2023-02-01T04:24:19;23.77;;;4.43;;
15806;SDS011;8005;51.368;6.140;2023-02-01T04:25:52;19.10;;;3.67;;
15806;SDS011;8005;51.368;6.140;2023-02-01T04:27:24;21.27;;;3.83;;
15806;SDS011;8005;51.368;6.140;2023-02-01T04:28:54;24.85;;;4.15;;
15806;SDS011;8005;51.368;6.140;2023-02-01T04:30:27;23.15;;;4.60;;
15806;SDS011;8005;51.368;6.140;2023-02-01T04:31:59;25.75;;;3.42;;
15806;SDS011;8005;51.368;6.140;2023-02-01T04:33:31;14.13;;;3.97;;
15806;SDS011;8005;51.368;6.140;2023-02-01T04:35:05;22.55;;;4.05;;
15806;SDS011;8005;51.368;6.140;2023-02-01T04:36:38;21.52;;;4.32;;
15806;SDS011;8005;51.368;6.140;2023-02-01T04:38:10;19.15;;;3.70;;
15806;SDS011;8005;51.368;6.140;2023-02-01T04:39:42;22.00;;;3.65;;
15806;SDS011;8005;51.368;6.140;2023-02-01T04:41:15;18.50;;;3.42;;
15806;SDS011;8005;51.368;6.140;2023-02-01T04:42:50;27.15;;;4.60;;
15806;SDS011;8005;51.368;6.140;2023-02-01T04:44:22;24.35;;;4.38;;
15806;SDS011;8005;51.368;6.140;2023-02-01T04:45:55;15.88;;;4.65;;
15806;SDS011;8005;51.368;6.140;2023-02-01T04:47:27;26.67;;;4.60;;
15806;SDS011;8005;51.368;6.140;2023-02-01T04:48:59;26.83;;;3.88;;
15806;SDS011;8005;51.368;6.140;2023-02-01T04:50:32;19.38;;;4.30;;
15806;SDS011;8005;51.368;6.140;2023-02-01T04:52:06;18.30;;;4.75;;
15806;SDS011;8005;51.368;6.140;2023-02-01T04:53:39;17.77;;;3.42;;
15806;SDS011;8005;51.368;6.140;2023-02-01T04:55:11;19.45;;;4.38;;
15806;SDS011;8005;51.368;6.140;2023-02-01T04:56:45;20.08;;;4.35;;
15806;SDS011;8005;51.368;6.140;2023-02-01T04:58:17;20.00;;;3.42;;
15806;SDS011;8005;51.368;6.140;2023-02-01T04:59:49;34.42;;;5.78;;
15806;SDS011;8005;51.368;6.140;2023-02-01T05:01:22;17.23;;;3.47;;
15806;SDS011;8005;51.368;6.140;2023-02-01T05:02:56;17.77;;;3.42;;
15806;SDS011;8005;51.368;6.140;2023-02-01T05:04:28;22.00;;;4.45;;
15806;SDS011;8005;51.368;6.140;2023-02-01T05:06:00;23.00;;;4.70;;
15806;SDS011;8005;51.368;6.140;2023-02-01T05:07:33;20.90;;;4.53;;
15806;SDS011;8005;51.368;6.140;2023-02-01T05:09:08;19.50;;;4.50;;
15806;SDS011;8005;51.368;6.140;2023-02-01T05:10:40;13.97;;;3.83;;
15806;SDS011;8005;51.368;6.140;2023-02-01T05:12:13;16.27;;;4.10;;
15806;SDS011;8005;51.368;6.140;2023-02-01T05:14:03;17.83;;;3.70;;
15806;SDS011;8005;51.368;6.140;2023-02-01T05:15:36;23.35;;;4.47;;
15806;SDS011;8005;51.368;6.140;2023-02-01T05:17:11;26.40;;;4.30;;
15806;SDS011;8005;51.368;6.140;2023-02-01T05:18:43;20.00;;;3.38;;
15806;SDS011;8005;51.368;6.140;2023-02-01T05:20:16;27.65;;;3.97;;
15806;SDS011;8005;51.368;6.140;2023-02-01T05:21:48;15.07;;;4.15;;
15806;SDS011;8005;51.368;6.140;2023-02-01T05:23:25;26.50;;;5.13;;
15806;SDS011;8005;51.368;6.140;2023-02-01T05:25:01;23.15;;;4.90;;
15806;SDS011;8005;51.368;6.140;2023-02-01T05:26:41;25.85;;;4.65;;
15806;SDS011;8005;51.368;6.140;2023-02-01T05:28:14;18.00;;;4.70;;
15806;SDS011;8005;51.368;6.140;2023-02-01T05:29:46;15.90;;;3.50;;
15806;SDS011;8005;51.368;6.140;2023-02-01T05:31:19;22.58;;;4.78;;
15806;SDS011;8005;51.368;6.140;2023-02-01T05:32:51;20.75;;;6.05;;
15806;SDS011;8005;51.368;6.140;2023-02-01T05:34:24;24.65;;;4.82;;
15806;SDS011;8005;51.368;6.140;2023-02-01T05:35:56;21.63;;;4.80;;
15806;SDS011;8005;51.368;6.140;2023-02-01T05:37:29;19.08;;;4.22;;
15806;SDS011;8005;51.368;6.140;2023-02-01T05:39:01;22.13;;;4.82;;
15806;SDS011;8005;51.368;6.140;2023-02-01T05:40:33;24.70;;;4.00;;
15806;SDS011;8005;51.368;6.140;2023-02-01T05:42:05;35.42;;;5.47;;
15806;SDS011;8005;51.368;6.140;2023-02-01T05:43:38;18.83;;;3.63;;
15806;SDS011;8005;51.368;6.140;2023-02-01T05:45:13;17.73;;;4.18;;
15806;SDS011;8005;51.368;6.140;2023-02-01T05:47:22;17.88;;;4.20;;
15806;SDS011;8005;51.368;6.140;2023-02-01T05:48:57;27.70;;;5.03;;
15806;SDS011;8005;51.368;6.140;2023-02-01T05:50:30;15.98;;;3.53;;
15806;SDS011;8005;51.368;6.140;2023-02-01T05:52:02;15.60;;;3.72;;
15806;SDS011;8005;51.368;6.140;2023-02-01T05:53:35;27.25;;;4.72;;
15806;SDS011;8005;51.368;6.140;2023-02-01T05:55:10;22.25;;;4.53;;
15806;SDS011;8005;51.368;6.140;2023-02-01T05:56:45;22.67;;;4.45;;
15806;SDS011;8005;51.368;6.140;2023-02-01T05:58:17;21.52;;;4.00;;
15806;SDS011;8005;51.368;6.140;2023-02-01T05:59:49;28.42;;;4.80;;
15806;SDS011;8005;51.368;6.140;2023-02-01T06:01:22;19.67;;;4.18;;
15806;SDS011;8005;51.368;6.140;2023-02-01T06:02:54;17.13;;;4.53;;
15806;SDS011;8005;51.368;6.140;2023-02-01T06:04:26;20.92;;;3.88;;
15806;SDS011;8005;51.368;6.140;2023-02-01T06:06:04;23.70;;;4.28;;
15806;SDS011;8005;51.368;6.140;2023-02-01T06:07:37;17.85;;;4.63;;
15806;SDS011;8005;51.368;6.140;2023-02-01T06:09:09;34.38;;;4.60;;
15806;SDS011;8005;51.368;6.140;2023-02-01T06:10:43;24.60;;;4.32;;
15806;SDS011;8005;51.368;6.140;2023-02-01T06:12:15;22.50;;;3.90;;
15806;SDS011;8005;51.368;6.140;2023-02-01T06:13:50;26.20;;;5.78;;
15806;SDS011;8005;51.368;6.140;2023-02-01T06:17:40;19.17;;;4.65;;
15806;SDS011;8005;51.368;6.140;2023-02-01T06:19:14;20.85;;;3.55;;
15806;SDS011;8005;51.368;6.140;2023-02-01T06:20:51;18.75;;;4.80;;
15806;SDS011;8005;51.368;6.140;2023-02-01T06:22:25;18.60;;;4.40;;
15806;SDS011;8005;51.368;6.140;2023-02-01T06:23:57;20.13;;;4.65;;
15806;SDS011;8005;51.368;6.140;2023-02-01T06:25:29;27.13;;;5.70;;
15806;SDS011;8005;51.368;6.140;2023-02-01T06:27:02;20.52;;;4.88;;
15806;SDS011;8005;51.368;6.140;2023-02-01T06:28:34;20.65;;;3.97;;
15806;SDS011;8005;51.368;6.140;2023-02-01T06:30:06;30.45;;;5.43;;
15806;SDS011;8005;51.368;6.140;2023-02-01T06:31:39;28.05;;;4.82;;
15806;SDS011;8005;51.368;6.140;2023-02-01T06:33:13;24.65;;;5.63;;
15806;SDS011;8005;51.368;6.140;2023-02-01T06:34:46;24.73;;;5.70;;
15806;SDS011;8005;51.368;6.140;2023-02-01T06:36:19;17.73;;;4.10;;
15806;SDS011;8005;51.368;6.140;2023-02-01T06:37:54;29.83;;;4.40;;
15806;SDS011;8005;51.368;6.140;2023-02-01T06:39:27;21.50;;;4.15;;
15806;SDS011;8005;51.368;6.140;2023-02-01T06:41:00;22.27;;;4.28;;
15806;SDS011;8005;51.368;6.140;2023-02-01T06:42:32;23.73;;;4.30;;
15806;SDS011;8005;51.368;6.140;2023-02-01T06:44:04;30.33;;;5.30;;
15806;SDS011;8005;51.368;6.140;2023-02-01T06:45:36;25.20;;;4.57;;
15806;SDS011;8005;51.368;6.140;2023-02-01T06:47:08;25.52;;;3.95;;
15806;SDS011;8005;51.368;6.140;2023-02-01T06:48:41;29.58;;;5.43;;
15806;SDS011;8005;51.368;6.140;2023-02-01T06:50:13;23.38;;;5.00;;
15806;SDS011;8005;51.368;6.140;2023-02-01T06:51:46;31.00;;;5.30;;
15806;SDS011;8005;51.368;6.140;2023-02-01T06:53:18;24.02;;;4.53;;
15806;SDS011;8005;51.368;6.140;2023-02-01T06:54:50;20.27;;;4.15;;
15806;SDS011;8005;51.368;6.140;2023-02-01T06:56:22;26.45;;;4.20;;
15806;SDS011;8005;51.368;6.140;2023-02-01T06:57:55;19.90;;;4.05;;
15806;SDS011;8005;51.368;6.140;2023-02-01T07:01:06;23.85;;;3.75;;
15806;SDS011;8005;51.368;6.140;2023-02-01T07:02:39;25.80;;;4.15;;
15806;SDS011;8005;51.368;6.140;2023-02-01T07:04:12;27.70;;;4.93;;
15806;SDS011;8005;51.368;6.140;2023-02-01T07:05:44;29.65;;;4.00;;
15806;SDS011;8005;51.368;6.140;2023-02-01T07:07:16;22.77;;;4.57;;
15806;SDS011;8005;51.368;6.140;2023-02-01T07:08:51;24.00;;;5.03;;
15806;SDS011;8005;51.368;6.140;2023-02-01T07:10:27;30.85;;;5.15;;
15806;SDS011;8005;51.368;6.140;2023-02-01T07:11:59;17.02;;;4.03;;
15806;SDS011;8005;51.368;6.140;2023-02-01T07:13:34;27.45;;;4.18;;
15806;SDS011;8005;51.368;6.140;2023-02-01T07:15:07;21.60;;;4.75;;
15806;SDS011;8005;51.368;6.140;2023-02-01T07:16:39;23.73;;;4.57;;
15806;SDS011;8005;51.368;6.140;2023-02-01T07:18:12;24.92;;;5.10;;
15806;SDS011;8005;51.368;6.140;2023-02-01T07:19:45;25.23;;;5.25;;
15806;SDS011;8005;51.368;6.140;2023-02-01T07:21:18;24.73;;;4.88;;
15806;SDS011;8005;51.368;6.140;2023-02-01T07:22:54;29.92;;;5.40;;
15806;SDS011;8005;51.368;6.140;2023-02-01T07:24:28;18.65;;;3.35;;
15806;SDS011;8005;51.368;6.140;2023-02-01T07:26:01;26.45;;;4.55;;
15806;SDS011;8005;51.368;6.140;2023-02-01T07:27:35;24.25;;;3.97;;
15806;SDS011;8005;51.368;6.140;2023-02-01T07:30:40;18.45;;;3.45;;
15806;SDS011;8005;51.368;6.140;2023-02-01T07:33:45;21.17;;;4.95;;
15806;SDS011;8005;51.368;6.140;2023-02-01T07:35:17;26.60;;;4.13;;
15806;SDS011;8005;51.368;6.140;2023-02-01T07:36:49;21.88;;;4.05;;
15806;SDS011;8005;51.368;6.140;2023-02-01T07:38:21;27.98;;;4.43;;
15806;SDS011;8005;51.368;6.140;2023-02-01T07:39:55;26.95;;;4.60;;
15806;SDS011;8005;51.368;6.140;2023-02-01T07:41:27;30.10;;;5.03;;
15806;SDS011;8005;51.368;6.140;2023-02-01T07:43:00;19.45;;;5.15;;
15806;SDS011;8005;51.368;6.140;2023-02-01T07:44:32;19.35;;;5.13;;
15806;SDS011;8005;51.368;6.140;2023-02-01T07:46:05;25.35;;;5.10;;
15806;SDS011;8005;51.368;6.140;2023-02-01T07:49:10;27.23;;;6.80;;
15806;SDS011;8005;51.368;6.140;2023-02-01T07:50:42;30.63;;;5.32;;
15806;SDS011;8005;51.368;6.140;2023-02-01T07:52:14;24.65;;;4.90;;
15806;SDS011;8005;51.368;6.140;2023-02-01T07:53:48;19.90;;;3.80;;
15806;SDS011;8005;51.368;6.140;2023-02-01T07:55:21;21.70;;;4.47;;
15806;SDS011;8005;51.368;6.140;2023-02-01T07:56:53;24.67;;;4.50;;
15806;SDS011;8005;51.368;6.140;2023-02-01T07:58:25;22.15;;;5.05;;
15806;SDS011;8005;51.368;6.140;2023-02-01T07:59:58;32.83;;;5.03;;
15806;SDS011;8005;51.368;6.140;2023-02-01T08:01:48;24.63;;;5.00;;
15806;SDS011;8005;51.368;6.140;2023-02-01T08:03:20;20.40;;;3.88;;
15806;SDS011;8005;51.368;6.140;2023-02-01T08:04:53;23.20;;;4.60;;
15806;SDS011;8005;51.368;6.140;2023-02-01T08:06:25;23.20;;;3.72;;
15806;SDS011;8005;51.368;6.140;2023-02-01T08:07:58;22.40;;;4.38;;
15806;SDS011;8005;51.368;6.140;2023-02-01T08:09:31;18.85;;;4.18;;
15806;SDS011;8005;51.368;6.140;2023-02-01T08:11:04;25.85;;;5.60;;
15806;SDS011;8005;51.368;6.140;2023-02-01T08:12:37;19.08;;;4.13;;
15806;SDS011;8005;51.368;6.140;2023-02-01T08:14:12;23.95;;;3.97;;
15806;SDS011;8005;51.368;6.140;2023-02-01T08:15:44;22.55;;;4.88;;
15806;SDS011;8005;51.368;6.140;2023-02-01T08:17:16;24.17;;;6.00;;
15806;SDS011;8005;51.368;6.140;2023-02-01T08:18:48;31.75;;;5.03;;
15806;SDS011;8005;51.368;6.140;2023-02-01T08:20:21;18.33;;;4.45;;
15806;SDS011;8005;51.368;6.140;2023-02-01T08:21:55;18.52;;;4.60;;
15806;SDS011;8005;51.368;6.140;2023-02-01T08:23:27;24.67;;;5.13;;
15806;SDS011;8005;51.368;6.140;2023-02-01T08:24:59;19.95;;;4.60;;
15806;SDS011;8005;51.368;6.140;2023-02-01T08:26:33;18.30;;;4.03;;
15806;SDS011;8005;51.368;6.140;2023-02-01T08:28:10;24.13;;;5.75;;
15806;SDS011;8005;51.368;6.140;2023-02-01T08:29:43;26.33;;;5.13;;
15806;SDS011;8005;51.368;6.140;2023-02-01T08:31:16;31.05;;;4.93;;
15806;SDS011;8005;51.368;6.140;2023-02-01T08:34:33;23.10;;;4.78;;
15806;SDS011;8005;51.368;6.140;2023-02-01T08:36:08;27.52;;;6.45;;
15806;SDS011;8005;51.368;6.140;2023-02-01T08:37:41;26.05;;;5.35;;
15806;SDS011;8005;51.368;6.140;2023-02-01T08:41:12;20.42;;;4.75;;
15806;SDS011;8005;51.368;6.140;2023-02-01T08:42:46;25.77;;;5.25;;
15806;SDS011;8005;51.368;6.140;2023-02-01T08:44:24;33.78;;;5.03;;
15806;SDS011;8005;51.368;6.140;2023-02-01T08:45:58;18.00;;;5.07;;
15806;SDS011;8005;51.368;6.140;2023-02-01T08:47:31;26.08;;;4.53;;
15806;SDS011;8005;51.368;6.140;2023-02-01T08:49:03;21.60;;;4.15;;
15806;SDS011;8005;51.368;6.140;2023-02-01T08:50:35;29.48;;;4.68;;
15806;SDS011;8005;51.368;6.140;2023-02-01T08:52:08;22.33;;;4.55;;
15806;SDS011;8005;51.368;6.140;2023-02-01T08:53:47;20.10;;;4.22;;
15806;SDS011;8005;51.368;6.140;2023-02-01T08:55:19;23.45;;;4.03;;
15806;SDS011;8005;51.368;6.140;2023-02-01T08:56:52;31.30;;;4.90;;
15806;SDS011;8005;51.368;6.140;2023-02-01T08:58:26;22.05;;;5.45;;
15806;SDS011;8005;51.368;6.140;2023-02-01T08:59:58;22.42;;;3.75;;
15806;SDS011;8005;51.368;6.140;2023-02-01T09:01:31;23.60;;;4.80;;
15806;SDS011;8005;51.368;6.140;2023-02-01T09:03:04;19.30;;;4.18;;
15806;SDS011;8005;51.368;6.140;2023-02-01T09:04:36;26.90;;;5.53;;
15806;SDS011;8005;51.368;6.140;2023-02-01T09:06:10;19.10;;;4.65;;
15806;SDS011;8005;51.368;6.140;2023-02-01T09:07:44;19.48;;;4.22;;
15806;SDS011;8005;51.368;6.140;2023-02-01T09:09:18;34.17;;;6.18;;
15806;SDS011;8005;51.368;6.140;2023-02-01T09:10:51;19.52;;;4.75;;
15806;SDS011;8005;51.368;6.140;2023-02-01T09:14:09;22.40;;;4.47;;
15806;SDS011;8005;51.368;6.140;2023-02-01T09:15:41;27.63;;;6.00;;
15806;SDS011;8005;51.368;6.140;2023-02-01T09:17:13;29.67;;;4.97;;
15806;SDS011;8005;51.368;6.140;2023-02-01T09:18:46;24.67;;;4.38;;
15806;SDS011;8005;51.368;6.140;2023-02-01T09:20:38;24.05;;;4.55;;
15806;SDS011;8005;51.368;6.140;2023-02-01T09:22:10;19.20;;;4.07;;
15806;SDS011;8005;51.368;6.140;2023-02-01T09:23:42;28.85;;;6.70;;
15806;SDS011;8005;51.368;6.140;2023-02-01T09:25:14;26.33;;;4.65;;
15806;SDS011;8005;51.368;6.140;2023-02-01T09:26:49;21.73;;;5.05;;
15806;SDS011;8005;51.368;6.140;2023-02-01T09:28:23;18.80;;;4.47;;
15806;SDS011;8005;51.368;6.140;2023-02-01T09:29:55;19.75;;;4.57;;
15806;SDS011;8005;51.368;6.140;2023-02-01T09:31:27;28.23;;;5.60;;
15806;SDS011;8005;51.368;6.140;2023-02-01T09:33:03;16.10;;;3.97;;
15806;SDS011;8005;51.368;6.140;2023-02-01T09:34:35;26.38;;;4.72;;
15806;SDS011;8005;51.368;6.140;2023-02-01T09:37:40;19.10;;;4.47;;
15806;SDS011;8005;51.368;6.140;2023-02-01T09:39:14;23.85;;;5.15;;
15806;SDS011;8005;51.368;6.140;2023-02-01T09:40:46;31.87;;;5.37;;
15806;SDS011;8005;51.368;6.140;2023-02-01T09:47:47;23.45;;;3.88;;
15806;SDS011;8005;51.368;6.140;2023-02-01T09:49:24;19.95;;;3.92;;
15806;SDS011;8005;51.368;6.140;2023-02-01T09:51:02;23.55;;;5.28;;
15806;SDS011;8005;51.368;6.140;2023-02-01T09:52:43;26.77;;;6.40;;
15806;SDS011;8005;51.368;6.140;2023-02-01T09:54:22;20.20;;;4.97;;
15806;SDS011;8005;51.368;6.140;2023-02-01T09:56:00;17.65;;;3.65;;
15806;SDS011;8005;51.368;6.140;2023-02-01T09:59:34;24.42;;;4.32;;
15806;SDS011;8005;51.368;6.140;2023-02-01T10:01:15;25.17;;;4.03;;
15806;SDS011;8005;51.368;6.140;2023-02-01T10:02:51;25.20;;;5.95;;
15806;SDS011;8005;51.368;6.140;2023-02-01T10:04:23;20.35;;;5.07;;
15806;SDS011;8005;51.368;6.140;2023-02-01T10:12:58;19.65;;;3.65;;
15806;SDS011;8005;51.368;6.140;2023-02-01T10:16:46;17.33;;;3.92;;
15806;SDS011;8005;51.368;6.140;2023-02-01T10:18:45;17.13;;;3.90;;
15806;SDS011;8005;51.368;6.140;2023-02-01T10:22:00;21.42;;;4.38;;
15806;SDS011;8005;51.368;6.140;2023-02-01T10:23:39;18.88;;;4.38;;
15806;SDS011;8005;51.368;6.140;2023-02-01T10:25:21;21.55;;;4.47;;
15806;SDS011;8005;51.368;6.140;2023-02-01T10:27:01;23.27;;;3.95;;
15806;SDS011;8005;51.368;6.140;2023-02-01T10:28:55;17.85;;;4.45;;
15806;SDS011;8005;51.368;6.140;2023-02-01T10:30:37;26.58;;;4.60;;
15806;SDS011;8005;51.368;6.140;2023-02-01T10:32:17;16.08;;;3.60;;
15806;SDS011;8005;51.368;6.140;2023-02-01T10:33:57;19.52;;;4.47;;
15806;SDS011;8005;51.368;6.140;2023-02-01T10:35:34;18.98;;;4.50;;
15806;SDS011;8005;51.368;6.140;2023-02-01T10:37:24;16.77;;;4.40;;
15806;SDS011;8005;51.368;6.140;2023-02-01T10:39:00;16.92;;;4.72;;
15806;SDS011;8005;51.368;6.140;2023-02-01T10:40:32;19.20;;;4.28;;
15806;SDS011;8005;51.368;6.140;2023-02-01T10:42:05;20.08;;;3.80;;
15806;SDS011;8005;51.368;6.140;2023-02-01T10:43:37;22.42;;;4.65;;
15806;SDS011;8005;51.368;6.140;2023-02-01T10:45:13;23.38;;;5.18;;
15806;SDS011;8005;51.368;6.140;2023-02-01T10:46:49;21.75;;;4.15;;